Strathmere, New Jersey
Current Conditions -  °F | °C
As of 3:54 AM on Wednesday 22 Oct 2014 (Local Time) from KACY Reporting Station
Light Rain Light Rain  
Wind Chill: 57°   Ceiling: 2100
Heat Index: 57°   Visibility: 10mi
Dew Point: 57°   Wind: 3mph
Humidity: 100%   Direction: 50°NE
Pressure: 29.82"   Gusts: NA
Location:  39.2°N, 74.66°W
Report Text: KACY 220754Z 05003KT 10SM -RA FEW005 BKN021 OVC085 14/14 A2982 RMK AO2 RAE52B54 SLP097 P0042 T01390139
Loading
Personal Weather Stations






























Interactive Weather Map
Tropical Storm Tracking
New forecast layout! Learn more

10-Day Weather Forecast

Advertisements
Track Severe Weather on mobile